createdAt,value
2022-11-24T00:02:35.367Z,4.57
2022-11-24T00:05:21.718Z,6.90
2022-11-24T00:08:07.325Z,7.00
2022-11-24T00:10:52.578Z,8.77
2022-11-24T00:13:40.838Z,8.30
2022-11-24T00:16:29.188Z,8.10
2022-11-24T00:19:19.433Z,6.68
2022-11-24T00:22:05.177Z,7.13
2022-11-24T00:24:50.715Z,4.35
2022-11-24T00:27:36.416Z,5.40
2022-11-24T00:30:22.098Z,6.78
2022-11-24T00:33:07.447Z,6.32
2022-11-24T00:36:01.178Z,3.50
2022-11-24T00:38:47.463Z,8.02
2022-11-24T00:41:33.615Z,5.70
2022-11-24T00:44:18.979Z,4.22
2022-11-24T00:47:04.527Z,6.60
2022-11-24T00:49:50.351Z,7.05
2022-11-24T00:52:35.644Z,8.18
2022-11-24T00:55:21.585Z,7.43
2022-11-24T00:58:07.245Z,12.07
2022-11-24T01:00:53.254Z,6.90
2022-11-24T01:03:40.224Z,9.32
2022-11-24T01:06:27.335Z,4.78
2022-11-24T01:09:12.799Z,4.63
2022-11-24T01:12:04.389Z,4.00
2022-11-24T01:14:50.257Z,3.33
2022-11-24T01:17:35.561Z,3.35
2022-11-24T01:20:21.060Z,4.28
2022-11-24T01:23:07.216Z,5.20
2022-11-24T01:25:53.127Z,4.60
2022-11-24T01:28:44.868Z,5.35
2022-11-24T01:31:33.011Z,8.18
2022-11-24T01:34:18.835Z,19.77
2022-11-24T01:37:04.945Z,8.43
2022-11-24T01:39:50.684Z,13.35
2022-11-24T01:42:53.237Z,11.05
2022-11-24T01:45:42.225Z,12.88
2022-11-24T01:48:32.927Z,7.93
2022-11-24T01:51:24.785Z,4.10
2022-11-24T01:54:22.415Z,5.37
2022-11-24T01:57:33.127Z,6.47
2022-11-24T02:00:18.901Z,5.15
2022-11-24T02:03:04.431Z,3.92
2022-11-24T02:05:54.635Z,3.53
2022-11-24T02:08:59.349Z,3.47
2022-11-24T02:11:47.081Z,2.80
2022-11-24T02:14:36.379Z,5.07
2022-11-24T02:17:22.517Z,3.13
2022-11-24T02:20:10.736Z,4.88
2022-11-24T02:23:40.621Z,6.05
2022-11-24T02:26:46.241Z,7.60
2022-11-24T02:29:31.806Z,8.70
2022-11-24T02:32:18.788Z,6.85
2022-11-24T02:35:06.461Z,8.48
2022-11-24T02:37:51.978Z,7.43
2022-11-24T02:40:37.506Z,10.57
2022-11-24T02:43:24.147Z,10.05
2022-11-24T02:46:10.951Z,9.05
2022-11-24T02:48:56.927Z,10.13
2022-11-24T02:51:42.654Z,11.88
2022-11-24T02:54:28.865Z,14.25
2022-11-24T02:57:15.284Z,9.27
2022-11-24T03:00:00.938Z,8.20
2022-11-24T03:02:46.367Z,6.72
2022-11-24T03:05:31.902Z,5.72
2022-11-24T03:08:17.659Z,5.78
2022-11-24T03:11:03.748Z,10.00
2022-11-24T03:13:50.201Z,10.25
2022-11-24T03:16:35.961Z,11.13
2022-11-24T03:19:21.404Z,8.60
2022-11-24T03:22:06.771Z,10.30
2022-11-24T03:24:52.327Z,10.75
2022-11-24T03:27:37.831Z,12.85
2022-11-24T03:30:23.192Z,18.52
2022-11-24T03:33:08.645Z,10.43
2022-11-24T03:35:54.156Z,9.02
2022-11-24T03:38:39.746Z,7.38
2022-11-24T03:41:25.090Z,9.40
2022-11-24T03:44:10.483Z,5.22
2022-11-24T03:46:55.925Z,6.15
2022-11-24T03:49:41.634Z,12.57
2022-11-24T03:52:27.395Z,12.55
2022-11-24T03:55:13.052Z,14.73
2022-11-24T03:57:58.526Z,11.82
2022-11-24T04:00:44.055Z,11.90
2022-11-24T04:03:29.613Z,11.88
2022-11-24T04:06:15.457Z,7.85
2022-11-24T04:09:01.050Z,6.80
2022-11-24T04:12:05.240Z,8.55
2022-11-24T04:14:50.812Z,10.95
2022-11-24T04:17:36.459Z,11.55
2022-11-24T04:20:22.771Z,10.57
2022-11-24T04:23:10.114Z,13.40
2022-11-24T04:25:55.687Z,14.60
2022-11-24T04:28:41.229Z,14.77
2022-11-24T04:31:26.902Z,16.50
2022-11-24T04:34:13.148Z,14.40
2022-11-24T04:36:58.996Z,12.35
2022-11-24T04:39:45.298Z,20.00
2022-11-24T04:42:30.823Z,19.58
2022-11-24T04:45:16.631Z,19.85
2022-11-24T04:48:02.672Z,20.23
2022-11-24T04:50:48.717Z,22.92
2022-11-24T04:53:34.571Z,16.50
2022-11-24T04:56:19.891Z,17.63
2022-11-24T04:59:08.429Z,15.10
2022-11-24T05:01:54.794Z,18.15
2022-11-24T05:04:40.619Z,10.02
2022-11-24T05:07:26.271Z,10.48
2022-11-24T05:10:30.483Z,9.45
2022-11-24T05:13:16.167Z,15.35
2022-11-24T05:16:02.302Z,13.50
2022-11-24T05:18:48.416Z,16.25
2022-11-24T05:21:35.001Z,9.80
2022-11-24T05:24:20.762Z,9.75
2022-11-24T05:27:06.220Z,15.90
2022-11-24T05:29:52.282Z,11.60
2022-11-24T05:32:37.728Z,13.45
2022-11-24T05:35:23.516Z,9.13
2022-11-24T05:38:09.283Z,10.45
2022-11-24T05:40:54.579Z,12.70
2022-11-24T05:43:39.939Z,10.25
2022-11-24T05:46:25.615Z,10.90
2022-11-24T05:49:11.616Z,11.50
2022-11-24T05:51:57.463Z,10.93
2022-11-24T05:54:42.935Z,15.82
2022-11-24T17:02:04.304Z,48.65
2022-11-24T17:04:52.368Z,26.95
2022-11-24T17:07:38.207Z,35.38
2022-11-24T17:10:23.528Z,29.50
2022-11-24T17:13:10.527Z,41.10
2022-11-24T17:15:56.557Z,36.53
2022-11-24T17:18:42.397Z,21.35
2022-11-24T17:21:28.571Z,22.10
2022-11-24T17:24:17.585Z,33.00
2022-11-24T17:27:03.234Z,27.10
2022-11-24T17:29:48.801Z,24.00
2022-11-24T17:32:34.149Z,21.77
2022-11-24T17:35:19.581Z,22.17
2022-11-24T17:38:05.111Z,17.08
2022-11-24T17:40:50.394Z,26.35
2022-11-24T17:43:36.255Z,21.50
2022-11-24T17:46:22.255Z,18.00
2022-11-24T17:49:13.293Z,15.23
2022-11-24T17:51:58.915Z,15.35
2022-11-24T17:54:46.709Z,17.13
2022-11-24T17:57:32.536Z,13.02
2022-11-24T18:00:18.755Z,13.68
2022-11-24T18:03:05.448Z,16.20
2022-11-24T18:05:51.647Z,12.15
2022-11-24T18:08:38.915Z,12.00
2022-11-24T18:11:31.830Z,13.68
2022-11-24T18:14:17.727Z,13.88
2022-11-24T18:17:04.303Z,14.18
2022-11-24T18:19:49.837Z,13.00
2022-11-24T18:25:52.599Z,13.50
2022-11-24T18:28:38.316Z,16.13
2022-11-24T18:31:23.766Z,17.30
2022-11-24T18:34:09.169Z,20.38
2022-11-24T18:36:55.705Z,23.83
2022-11-24T18:39:42.583Z,26.63
2022-11-24T18:42:31.390Z,22.73
2022-11-24T18:45:29.198Z,57.38
2022-11-24T18:48:16.513Z,56.63
2022-11-24T18:51:02.615Z,36.28
2022-11-24T18:53:54.406Z,43.25
2022-11-24T18:56:40.386Z,35.03
2022-11-24T18:59:33.705Z,37.97
2022-11-24T19:02:23.319Z,33.45
2022-11-24T19:05:09.488Z,36.20
2022-11-24T19:07:55.908Z,34.40
2022-11-24T19:10:41.808Z,43.00
2022-11-24T19:13:28.177Z,41.15
2022-11-24T19:16:14.309Z,33.65
2022-11-24T19:19:02.640Z,47.47
2022-11-24T19:21:48.663Z,32.58
2022-11-24T19:24:34.656Z,34.45
2022-11-24T19:27:22.494Z,40.90
2022-11-24T19:30:09.126Z,34.22
2022-11-24T19:32:56.657Z,28.75
2022-11-24T19:35:42.544Z,28.27
2022-11-24T19:38:30.231Z,24.58
2022-11-24T19:41:16.581Z,26.42
2022-11-24T19:44:02.942Z,31.80
2022-11-24T19:46:49.484Z,20.80
2022-11-24T19:49:36.135Z,25.02
2022-11-24T19:52:23.194Z,22.05
2022-11-24T19:55:09.102Z,29.58
2022-11-24T19:57:55.485Z,33.40
2022-11-24T20:00:41.297Z,31.77
2022-11-24T20:03:26.667Z,29.90
2022-11-24T20:06:14.540Z,32.15
2022-11-24T20:09:01.100Z,36.67
2022-11-24T20:11:48.744Z,48.25
2022-11-24T20:14:35.291Z,32.72
2022-11-24T20:17:21.026Z,36.28
2022-11-24T20:20:07.165Z,41.33
2022-11-24T20:22:52.927Z,31.70
2022-11-24T20:25:38.842Z,34.70
2022-11-24T20:28:24.314Z,26.33
2022-11-24T20:31:13.251Z,27.88
2022-11-24T20:34:04.378Z,34.17
2022-11-24T20:36:52.757Z,33.97
2022-11-24T20:39:40.536Z,28.80
2022-11-24T20:42:27.746Z,40.33
2022-11-24T20:45:13.727Z,36.28
2022-11-24T20:47:59.256Z,38.72
2022-11-24T20:50:51.152Z,39.03
2022-11-24T20:53:38.546Z,38.80
2022-11-24T20:56:27.004Z,29.10
2022-11-24T20:59:16.619Z,27.67
2022-11-24T21:02:03.780Z,30.73
2022-11-24T21:04:49.361Z,36.67
2022-11-24T21:07:34.860Z,27.48
2022-11-24T21:10:20.725Z,39.25
2022-11-24T21:13:06.115Z,52.53
2022-11-24T21:15:52.164Z,37.35
2022-11-24T21:18:37.674Z,50.03
2022-11-24T21:21:24.880Z,38.33
2022-11-24T21:24:13.131Z,38.78
2022-11-24T21:26:58.663Z,42.58
2022-11-24T21:29:43.972Z,59.85
2022-11-24T21:32:29.495Z,46.67
2022-11-24T21:35:15.264Z,42.30
2022-11-24T21:38:00.709Z,61.35
2022-11-24T21:40:50.183Z,32.33
2022-11-24T21:43:36.791Z,24.70
2022-11-24T21:46:22.738Z,25.63
2022-11-24T21:49:08.436Z,28.10
2022-11-24T21:51:55.873Z,34.38
2022-11-24T21:54:41.568Z,30.67
2022-11-24T21:57:28.391Z,36.95
2022-11-24T22:00:14.559Z,32.25
2022-11-24T22:03:00.253Z,27.73
2022-11-24T22:05:55.995Z,35.47
2022-11-24T22:08:41.414Z,34.75
2022-11-24T22:11:26.765Z,33.53
2022-11-24T22:14:12.516Z,50.67
2022-11-24T22:16:57.989Z,25.50
2022-11-24T22:19:43.294Z,41.38
2022-11-24T22:22:28.829Z,34.83
2022-11-24T22:25:14.242Z,27.17
2022-11-24T22:28:01.240Z,19.38
2022-11-24T22:30:51.161Z,23.52
2022-11-24T22:33:37.904Z,20.90
2022-11-24T22:36:25.597Z,22.60
2022-11-24T22:39:11.929Z,22.35
2022-11-24T22:41:57.283Z,24.00
2022-11-24T22:44:43.042Z,26.00
2022-11-24T22:47:28.712Z,27.67
2022-11-24T22:50:15.100Z,27.85
2022-11-24T22:53:01.043Z,30.13
2022-11-24T22:55:46.779Z,29.65
2022-11-24T22:58:34.089Z,26.80
2022-11-24T23:01:20.564Z,19.65
2022-11-24T23:04:06.417Z,22.02
2022-11-24T23:06:52.050Z,26.00
2022-11-24T23:09:37.326Z,31.10
2022-11-24T23:12:22.773Z,40.88
2022-11-24T23:15:09.300Z,33.85
2022-11-24T23:17:55.106Z,25.00
2022-11-24T23:20:40.928Z,27.50
2022-11-24T23:23:28.240Z,23.73
2022-11-24T23:26:17.916Z,22.48
2022-11-24T23:29:04.756Z,25.58
2022-11-24T23:31:50.865Z,27.45
2022-11-24T23:34:36.500Z,24.80
2022-11-24T23:37:34.326Z,25.10
2022-11-24T23:40:28.476Z,24.48
2022-11-24T23:43:14.181Z,25.83
2022-11-24T23:46:09.091Z,27.13
2022-11-24T23:48:55.388Z,35.03
2022-11-24T23:51:42.162Z,25.63
2022-11-24T23:54:27.766Z,19.85
2022-11-24T23:57:13.179Z,22.75
2022-11-24T23:59:58.529Z,24.70
